Time;durP1;ratioP1;P1;durP2;ratioP2;P2;SDS_P1;SDS_P2;PMS_P1;PMS_P2;Temp;Humidity;BMP_temperature;BMP_pressure;BME280_temperature;BME280_humidity;BME280_pressure;Samples;Min_cycle;Max_cycle;Signal;HPM_P1;HPM_P2
2022/11/22 00:03:24;;;;;;;116.93;91.57;;;20.90;51.50;;;;;;4784531;55;21052;-43
2022/11/22 00:08:24;;;;;;;114.78;90.40;;;20.90;51.60;;;;;;4756927;55;21008;-41
2022/11/22 00:13:25;;;;;;;109.85;86.50;;;20.90;51.50;;;;;;4710926;55;21502;-47
2022/11/22 00:18:27;;;;;;;108.40;86.22;;;20.90;51.50;;;;;;5095143;55;21108;-45
2022/11/22 00:23:28;;;;;;;109.15;84.68;;;20.90;51.30;;;;;;4790215;55;21008;-42
2022/11/22 00:28:28;;;;;;;104.50;82.55;;;20.90;51.30;;;;;;5030642;55;21008;-36
2022/11/22 00:33:29;;;;;;;107.20;85.20;;;20.90;51.20;;;;;;4981775;55;21008;-40
2022/11/22 00:38:30;;;;;;;102.47;80.35;;;20.90;51.20;;;;;;4694711;59;21084;-45
2022/11/22 00:43:31;;;;;;;102.65;80.72;;;20.90;51.10;;;;;;4822570;55;21085;-34
2022/11/22 00:48:32;;;;;;;104.03;81.82;;;20.90;51.20;;;;;;4862840;55;21036;-40
2022/11/22 00:53:32;;;;;;;102.90;80.07;;;20.90;51.00;;;;;;4694677;59;21060;-45
2022/11/22 00:58:33;;;;;;;103.20;80.55;;;20.90;51.00;;;;;;5169355;55;21174;-40
2022/11/22 01:03:35;;;;;;;101.32;79.70;;;20.90;50.90;;;;;;4811548;55;21501;-47
2022/11/22 01:08:36;;;;;;;98.93;77.82;;;20.90;51.00;;;;;;4718521;55;21134;-40
2022/11/22 01:13:36;;;;;;;102.43;78.93;;;20.90;50.90;;;;;;4718461;55;21020;-39
2022/11/22 01:18:37;;;;;;;97.00;75.93;;;20.90;50.90;;;;;;5169385;55;21566;-46
2022/11/22 01:23:38;;;;;;;94.60;73.62;;;20.90;50.80;;;;;;4712367;55;21095;-44
2022/11/22 01:28:39;;;;;;;97.45;76.22;;;20.90;50.80;;;;;;4694888;59;21036;-44
2022/11/22 01:33:40;;;;;;;94.30;74.78;;;20.90;50.80;;;;;;5169308;55;21051;-45
2022/11/22 01:38:41;;;;;;;92.37;73.28;;;20.90;50.80;;;;;;4725278;55;21597;-46
2022/11/22 01:43:41;;;;;;;93.07;73.78;;;20.90;50.80;;;;;;5131445;55;21493;-41
2022/11/22 01:49:06;;;;;;;90.05;72.28;;;20.80;50.70;;;;;;4698663;55;21011;-46
2022/11/22 01:54:14;;;;;;;92.10;70.95;;;20.90;50.60;;;;;;4694967;55;21039;-37
2022/11/22 01:59:18;;;;;;;91.90;70.72;;;20.90;50.60;;;;;;4816715;55;21056;-42
2022/11/22 02:04:21;;;;;;;86.45;68.20;;;20.80;50.60;;;;;;4766576;55;21058;-43
2022/11/22 02:09:22;;;;;;;88.25;68.40;;;20.80;50.50;;;;;;4761070;55;21023;-45
2022/11/22 02:14:25;;;;;;;89.95;69.45;;;20.80;50.50;;;;;;4929000;55;21043;-44
2022/11/22 02:19:41;;;;;;;82.97;66.25;;;20.90;50.50;;;;;;4906217;55;21147;-43
2022/11/22 02:24:52;;;;;;;82.32;65.05;;;20.80;50.40;;;;;;4724029;55;21012;-44
2022/11/22 02:29:53;;;;;;;83.97;65.78;;;20.80;50.40;;;;;;4695087;59;21063;-39
2022/11/22 02:34:54;;;;;;;84.15;65.28;;;20.80;50.40;;;;;;4721058;55;21008;-43
2022/11/22 02:40:06;;;;;;;82.88;65.05;;;20.80;50.20;;;;;;4814078;55;21027;-46
2022/11/22 02:45:08;;;;;;;81.25;62.08;;;20.80;50.20;;;;;;4874280;55;21046;-36
2022/11/22 02:50:08;;;;;;;79.50;62.47;;;20.80;50.20;;;;;;4760875;55;20985;-34
2022/11/22 02:55:09;;;;;;;77.60;59.55;;;20.80;50.20;;;;;;4714888;55;21045;-37
2022/11/22 03:00:11;;;;;;;79.50;60.78;;;20.80;50.10;;;;;;4837575;55;21561;-44
2022/11/22 03:05:12;;;;;;;79.60;62.78;;;20.80;50.00;;;;;;5051497;55;21087;-46
2022/11/22 03:10:13;;;;;;;75.72;59.58;;;20.80;50.00;;;;;;4770433;55;21064;-49
2022/11/22 03:15:14;;;;;;;76.68;60.55;;;20.80;50.00;;;;;;4701111;55;21470;-46
2022/11/22 03:20:15;;;;;;;73.50;58.13;;;20.80;50.00;;;;;;4784289;55;21024;-39
2022/11/22 03:25:16;;;;;;;77.18;60.15;;;20.80;50.00;;;;;;4695134;59;21021;-44
2022/11/22 03:30:17;;;;;;;72.40;57.03;;;20.80;50.00;;;;;;5169437;55;21079;-45
2022/11/22 03:35:18;;;;;;;76.25;59.17;;;20.80;49.90;;;;;;4714986;55;21017;-43
2022/11/22 03:40:19;;;;;;;72.00;58.15;;;20.80;50.00;;;;;;4729363;55;21019;-44
2022/11/22 03:45:20;;;;;;;72.62;55.75;;;20.80;49.80;;;;;;4742719;55;21459;-36
2022/11/22 03:50:22;;;;;;;71.62;54.67;;;20.80;49.90;;;;;;4804666;55;21024;-41
2022/11/22 03:55:23;;;;;;;70.68;54.53;;;20.70;49.70;;;;;;4762277;55;21012;-44
2022/11/22 04:00:23;;;;;;;72.03;55.72;;;20.80;49.80;;;;;;4990398;55;21068;-47
2022/11/22 04:05:25;;;;;;;66.70;53.20;;;20.80;49.80;;;;;;4713834;55;21055;-42
2022/11/22 04:10:25;;;;;;;66.82;52.83;;;20.70;49.80;;;;;;4695471;59;21076;-31
2022/11/22 04:15:26;;;;;;;65.60;52.15;;;20.80;49.80;;;;;;4694910;59;21063;-29
2022/11/22 04:25:51;;;;;;;67.15;51.97;;;20.70;49.80;;;;;;4694883;55;21498;-39
2022/11/22 04:36:11;;;;;;;62.40;48.60;;;20.80;49.90;;;;;;4694954;56;21529;-40
2022/11/22 04:41:12;;;;;;;63.28;49.17;;;20.70;49.80;;;;;;4945293;55;21028;-40
2022/11/22 04:46:14;;;;;;;66.82;49.13;;;20.80;50.10;;;;;;4695447;59;21013;-39
2022/11/22 05:03:05;;;;;;;59.55;45.67;;;20.70;49.80;;;;;;4847044;55;21514;-43
2022/11/22 05:08:07;;;;;;;58.60;46.85;;;20.70;49.90;;;;;;5113506;55;21079;-41
2022/11/22 05:13:08;;;;;;;61.25;49.00;;;20.70;49.90;;;;;;5078882;55;21490;-36
2022/11/22 05:18:09;;;;;;;57.72;45.38;;;20.70;50.20;;;;;;4775206;55;21008;-37
2022/11/22 05:28:34;;;;;;;55.00;43.75;;;20.70;50.20;;;;;;4694521;55;21084;-48
2022/11/22 05:33:37;;;;;;;56.42;44.67;;;20.70;50.30;;;;;;4858031;55;21040;-49
2022/11/22 05:38:38;;;;;;;56.97;43.47;;;20.70;50.30;;;;;;5014291;55;21099;-38
2022/11/22 05:43:40;;;;;;;55.58;44.65;;;20.70;50.30;;;;;;4804814;55;21068;-35
2022/11/22 05:48:43;;;;;;;56.25;44.42;;;20.70;50.30;;;;;;4819144;55;21616;-44
2022/11/22 05:53:45;;;;;;;54.05;43.25;;;20.70;50.30;;;;;;4729612;55;21016;-48
2022/11/22 05:58:46;;;;;;;53.05;42.47;;;20.70;50.40;;;;;;4694123;59;21048;-49
2022/11/22 06:03:47;;;;;;;55.10;42.53;;;20.70;51.00;;;;;;4959214;55;21003;-49
2022/11/22 06:08:50;;;;;;;53.80;42.65;;;20.70;50.30;;;;;;4903712;55;21068;-40
2022/11/22 06:13:53;;;;;;;51.95;40.88;;;20.70;50.20;;;;;;4900330;55;21600;-44
2022/11/22 06:18:55;;;;;;;50.22;40.60;;;20.70;50.20;;;;;;5067949;55;21083;-47
2022/11/22 06:23:56;;;;;;;52.15;40.75;;;20.70;50.20;;;;;;4694976;59;21068;-41
2022/11/22 06:28:56;;;;;;;51.92;40.95;;;20.70;50.20;;;;;;4716370;55;21004;-38
2022/11/22 06:33:59;;;;;;;53.35;42.65;;;20.70;50.20;;;;;;4883173;55;21008;-44
2022/11/22 06:39:02;;;;;;;55.67;43.97;;;20.70;50.10;;;;;;4790332;55;21026;-44
2022/11/22 06:44:07;;;;;;;56.92;44.65;;;20.70;50.20;;;;;;4794831;55;21533;-51
2022/11/22 06:49:08;;;;;;;55.10;43.20;;;20.70;50.10;;;;;;4934909;55;21004;-37
2022/11/22 06:54:10;;;;;;;55.55;43.50;;;20.70;50.10;;;;;;4953855;55;21016;-43
2022/11/22 06:59:11;;;;;;;53.83;43.15;;;20.70;50.10;;;;;;4749649;55;21088;-40
2022/11/22 07:04:12;;;;;;;58.35;44.40;;;20.70;50.20;;;;;;4760908;55;21471;-36
2022/11/22 07:09:13;;;;;;;59.03;45.60;;;20.70;50.10;;;;;;4847995;55;21007;-39
2022/11/22 07:14:14;;;;;;;56.95;45.25;;;20.70;50.00;;;;;;5028258;55;21072;-36
2022/11/22 07:19:15;;;;;;;59.60;45.12;;;20.70;50.50;;;;;;4694096;59;21076;-39
2022/11/22 07:24:16;;;;;;;60.92;46.75;;;20.70;50.00;;;;;;4717408;55;20985;-42
2022/11/22 07:29:17;;;;;;;58.45;44.80;;;20.70;49.90;;;;;;4803195;55;21538;-46
2022/11/22 07:34:18;;;;;;;56.97;46.25;;;20.70;49.90;;;;;;4745895;55;21098;-47
2022/11/22 07:39:19;;;;;;;59.35;47.17;;;20.70;49.90;;;;;;4983212;55;21039;-48
2022/11/22 07:44:20;;;;;;;59.45;47.85;;;20.70;49.90;;;;;;4946951;55;21862;-41
2022/11/22 07:49:21;;;;;;;62.62;49.58;;;20.70;49.90;;;;;;4694037;59;21503;-45
2022/11/22 07:54:22;;;;;;;64.05;49.80;;;20.70;50.10;;;;;;4712766;55;20992;-39
2022/11/22 07:59:24;;;;;;;64.72;50.60;;;20.70;50.00;;;;;;4727850;55;21039;-51
2022/11/22 08:04:24;;;;;;;67.70;53.87;;;20.70;49.90;;;;;;4694308;59;21597;-30
2022/11/22 08:09:25;;;;;;;79.87;60.53;;;20.80;49.70;;;;;;4721740;55;21541;-44
2022/11/22 08:14:26;;;;;;;86.05;65.50;;;20.80;49.60;;;;;;4694513;59;21055;-36
2022/11/22 08:19:29;;;;;;;88.20;67.43;;;20.80;49.40;;;;;;4693993;59;21036;-40
2022/11/22 08:24:29;;;;;;;92.97;70.05;;;20.90;49.40;;;;;;4712057;55;21056;-47
2022/11/22 08:29:30;;;;;;;94.85;70.60;;;20.90;49.30;;;;;;4758578;55;21020;-44
2022/11/22 08:34:31;;;;;;;102.53;76.00;;;21.00;49.30;;;;;;4695077;59;21467;-46
2022/11/22 08:39:32;;;;;;;101.18;78.65;;;21.00;49.10;;;;;;4694083;56;21017;-37
2022/11/22 08:44:33;;;;;;;108.97;84.07;;;21.00;49.10;;;;;;4694944;59;21458;-29
2022/11/22 08:49:33;;;;;;;120.35;89.65;;;21.00;48.90;;;;;;4694719;55;21030;-44
2022/11/22 08:54:34;;;;;;;125.22;94.05;;;21.10;48.90;;;;;;4782221;55;21111;-39
2022/11/22 08:59:35;;;;;;;127.95;97.22;;;21.10;48.90;;;;;;4694223;59;21036;-43
2022/11/22 09:04:36;;;;;;;133.87;100.65;;;21.10;48.80;;;;;;4694264;59;21001;-32
2022/11/22 09:09:37;;;;;;;138.85;103.75;;;21.10;48.80;;;;;;4727128;55;21016;-37
2022/11/22 09:14:37;;;;;;;140.30;103.62;;;21.20;48.60;;;;;;4694775;56;21037;-34
2022/11/22 09:19:38;;;;;;;148.40;108.82;;;21.20;49.00;;;;;;4694126;59;21023;-43
2022/11/22 09:24:39;;;;;;;148.90;111.22;;;21.20;49.00;;;;;;4694392;59;21462;-40
2022/11/22 09:29:40;;;;;;;148.50;112.28;;;21.20;49.00;;;;;;4706627;55;21599;-42
2022/11/22 09:34:41;;;;;;;150.07;112.12;;;21.20;49.10;;;;;;4788898;55;21525;-37
2022/11/22 09:39:41;;;;;;;160.65;118.07;;;21.20;49.40;;;;;;4706901;55;21527;-46
2022/11/22 09:45:14;;;;;;;145.87;111.43;;;21.20;49.90;;;;;;4819615;55;21004;-43
2022/11/22 09:50:40;;;;;;;159.52;116.45;;;21.20;49.40;;;;;;4694429;57;21569;-41
2022/11/22 09:55:50;;;;;;;156.70;115.57;;;21.30;49.70;;;;;;4694638;56;21048;-46
2022/11/22 10:01:02;;;;;;;173.15;123.28;;;21.30;49.70;;;;;;4695760;55;21091;-37
2022/11/22 10:06:08;;;;;;;165.95;120.57;;;21.40;49.60;;;;;;4692862;59;21084;-49
2022/11/22 10:12:03;;;;;;;164.32;121.72;;;21.30;49.40;;;;;;4744094;55;21179;-45
2022/11/22 10:18:44;;;;;;;163.77;123.20;;;21.30;49.20;;;;;;4763123;55;20992;-39
2022/11/22 10:23:45;;;;;;;174.25;128.98;;;21.20;48.80;;;;;;4693087;55;21075;-37
2022/11/22 10:29:50;;;;;;;186.12;132.10;;;21.20;48.70;;;;;;4693666;59;21076;-48
2022/11/22 10:36:59;;;;;;;186.23;133.27;;;21.20;48.60;;;;;;4711760;55;21000;-32
2022/11/22 10:43:13;;;;;;;188.18;136.85;;;21.20;48.30;;;;;;4890054;55;21470;-45
2022/11/22 10:48:30;;;;;;;191.27;135.20;;;21.20;48.90;;;;;;4714116;55;21068;-46
2022/11/22 10:53:56;;;;;;;197.57;141.50;;;21.20;49.20;;;;;;4836600;55;21084;-35
2022/11/22 11:03:32;;;;;;;198.32;142.73;;;21.30;49.30;;;;;;4774225;55;21047;-41
2022/11/22 11:08:45;;;;;;;191.77;136.80;;;21.30;49.40;;;;;;5023309;55;21032;-40
2022/11/22 11:13:58;;;;;;;204.23;144.95;;;21.30;49.50;;;;;;4695964;55;21008;-37
2022/11/22 11:19:20;;;;;;;201.45;145.60;;;21.30;49.50;;;;;;4734531;55;21067;-38
2022/11/22 11:24:21;;;;;;;207.05;151.37;;;21.30;49.50;;;;;;4725603;55;21044;-36
2022/11/22 11:29:33;;;;;;;201.73;145.82;;;21.30;49.50;;;;;;4694320;59;21491;-45
2022/11/22 11:34:35;;;;;;;194.62;143.02;;;21.40;49.70;;;;;;4694534;59;21589;-40
2022/11/22 11:39:36;;;;;;;184.05;138.70;;;21.40;49.70;;;;;;4716183;55;21498;-39
2022/11/22 11:44:37;;;;;;;192.48;142.98;;;21.30;50.20;;;;;;4774493;55;21012;-40
2022/11/22 11:49:48;;;;;;;180.90;134.87;;;21.30;49.60;;;;;;4691491;55;21079;-44
2022/11/22 11:54:53;;;;;;;183.93;136.80;;;21.30;49.40;;;;;;4705537;55;21037;-42
2022/11/22 11:59:57;;;;;;;192.68;139.57;;;21.30;49.40;;;;;;4693564;59;21099;-43
2022/11/22 12:05:05;;;;;;;178.25;135.68;;;21.30;49.30;;;;;;4870183;55;21000;-38
2022/11/22 12:10:30;;;;;;;172.35;129.32;;;21.30;49.30;;;;;;4752341;55;20988;-44
2022/11/22 12:16:00;;;;;;;174.57;130.00;;;21.30;49.30;;;;;;4724717;55;21510;-35
2022/11/22 12:23:09;;;;;;;170.62;129.87;;;21.30;48.70;;;;;;4772126;55;21165;-52
2022/11/22 12:28:18;;;;;;;171.02;128.23;;;21.30;48.70;;;;;;4774805;55;21047;-41
2022/11/22 12:33:32;;;;;;;165.60;127.07;;;21.20;48.40;;;;;;4758948;55;21043;-43
2022/11/22 12:38:39;;;;;;;161.32;123.85;;;21.20;48.40;;;;;;4694076;59;21024;-49
2022/11/22 12:44:23;;;;;;;164.03;125.00;;;21.20;48.40;;;;;;4707324;55;21019;-42
2022/11/22 12:49:38;;;;;;;158.70;121.15;;;21.20;48.30;;;;;;4694725;59;20988;-52
2022/11/22 12:55:01;;;;;;;165.02;123.53;;;21.20;48.20;;;;;;4694943;59;20987;-43
2022/11/22 13:00:11;;;;;;;164.80;121.65;;;21.20;48.30;;;;;;4778594;55;21068;-39
2022/11/22 13:05:22;;;;;;;166.05;125.47;;;21.20;48.10;;;;;;4738489;55;21075;-40
2022/11/22 13:10:52;;;;;;;164.10;125.28;;;21.20;48.00;;;;;;4767227;55;21079;-43
2022/11/22 13:15:56;;;;;;;160.93;122.82;;;21.20;48.20;;;;;;4761163;55;21040;-48
2022/11/22 13:27:57;;;;;;;162.10;120.35;;;21.20;48.10;;;;;;4782129;55;21107;-35
2022/11/22 13:32:59;;;;;;;155.80;119.70;;;21.20;48.00;;;;;;4692624;55;21630;-44
2022/11/22 13:38:33;;;;;;;151.20;118.93;;;21.20;48.40;;;;;;4703571;55;21032;-41
2022/11/22 13:43:50;;;;;;;151.35;119.00;;;21.10;48.40;;;;;;4725650;55;21509;-44
2022/11/22 13:49:58;;;;;;;151.27;117.03;;;21.10;49.20;;;;;;4694622;59;21044;-36
2022/11/22 13:55:21;;;;;;;151.15;117.45;;;21.10;48.60;;;;;;4753023;55;21008;-46
2022/11/22 14:00:42;;;;;;;158.20;118.82;;;21.10;48.80;;;;;;4708923;55;21100;-41
2022/11/22 14:05:48;;;;;;;149.70;115.47;;;21.10;48.90;;;;;;4718198;55;21064;-37
2022/11/22 14:11:42;;;;;;;148.48;114.93;;;21.10;49.00;;;;;;4694368;59;21016;-42
2022/11/22 14:17:37;;;;;;;143.57;112.93;;;21.00;49.00;;;;;;4816898;55;21134;-45
2022/11/22 14:23:08;;;;;;;142.23;110.60;;;21.00;49.00;;;;;;4716564;55;21000;-45
2022/11/22 14:30:45;;;;;;;142.60;110.28;;;21.00;49.20;;;;;;4769641;55;21044;-44
2022/11/22 14:36:14;;;;;;;138.02;110.40;;;21.00;49.30;;;;;;4916367;55;20979;-39
2022/11/22 14:41:41;;;;;;;137.75;107.97;;;21.00;49.30;;;;;;4781901;55;21201;-44
2022/11/22 14:46:56;;;;;;;136.27;107.47;;;21.00;49.30;;;;;;4724089;55;21076;-37
2022/11/22 14:51:58;;;;;;;134.75;105.97;;;21.00;49.40;;;;;;4917832;55;20992;-43
2022/11/22 14:57:04;;;;;;;136.05;106.03;;;20.90;49.30;;;;;;4728207;55;21546;-40
2022/11/22 15:10:45;;;;;;;133.23;105.32;;;20.90;49.40;;;;;;4825293;55;21083;-48
2022/11/22 15:15:47;;;;;;;132.02;102.07;;;20.90;49.50;;;;;;4765594;55;20996;-37
2022/11/22 15:20:48;;;;;;;129.65;101.78;;;20.90;49.50;;;;;;4886526;55;21015;-47
2022/11/22 15:26:04;;;;;;;123.85;98.12;;;20.90;49.60;;;;;;4695206;57;21297;-49
2022/11/22 15:31:13;;;;;;;128.25;100.68;;;20.90;49.60;;;;;;4826618;55;21008;-41
2022/11/22 15:36:43;;;;;;;128.10;100.85;;;20.90;49.60;;;;;;4720900;55;21490;-43
2022/11/22 15:41:49;;;;;;;125.75;98.85;;;20.90;49.70;;;;;;4862429;55;21000;-41
2022/11/22 15:46:50;;;;;;;118.43;95.78;;;20.90;49.60;;;;;;4695339;59;21048;-44
2022/11/22 15:51:57;;;;;;;124.07;97.93;;;20.90;49.60;;;;;;4694897;59;21115;-40
2022/11/22 15:57:03;;;;;;;122.77;97.63;;;20.90;49.70;;;;;;5037486;55;21574;-45
2022/11/22 16:02:18;;;;;;;125.67;100.07;;;20.90;49.70;;;;;;4750357;55;21585;-45
2022/11/22 16:07:30;;;;;;;119.87;95.28;;;20.90;49.70;;;;;;4826925;55;21288;-45
2022/11/22 16:12:37;;;;;;;124.95;98.40;;;20.90;49.70;;;;;;4720819;55;21072;-39
2022/11/22 16:17:47;;;;;;;;;;;20.90;49.70;;;;;;4768337;55;21645;-47
2022/11/22 16:23:12;;;;;;;121.75;97.70;;;20.90;49.80;;;;;;4767428;55;20077;-42
2022/11/22 16:28:48;;;;;;;122.40;95.03;;;20.90;49.80;;;;;;4694849;59;21004;-42
2022/11/22 16:33:50;;;;;;;127.80;101.15;;;20.90;49.80;;;;;;4850738;55;21498;-44
2022/11/22 16:38:51;;;;;;;128.73;100.80;;;20.80;49.80;;;;;;4907699;55;21506;-48
2022/11/22 16:44:01;;;;;;;123.32;98.43;;;20.90;49.80;;;;;;4694543;59;21072;-43
2022/11/22 16:49:18;;;;;;;128.50;100.40;;;20.80;49.70;;;;;;4723480;55;20990;-47
2022/11/22 16:54:22;;;;;;;120.10;95.87;;;20.80;49.80;;;;;;4694884;59;20996;-37
2022/11/22 16:59:23;;;;;;;125.90;98.85;;;20.80;49.80;;;;;;4694218;59;21597;-46
2022/11/22 17:04:26;;;;;;;125.22;97.93;;;20.80;49.90;;;;;;4720077;55;21079;-44
2022/11/22 17:09:27;;;;;;;124.75;98.60;;;20.80;49.80;;;;;;4935034;55;21617;-42
2022/11/22 17:14:27;;;;;;;124.87;99.95;;;20.80;49.90;;;;;;4694690;59;21004;-45
2022/11/22 17:19:28;;;;;;;129.25;99.65;;;20.80;49.80;;;;;;4760028;55;21015;-35
2022/11/22 17:24:29;;;;;;;122.05;97.07;;;20.80;50.50;;;;;;4965247;55;21007;-49
2022/11/22 17:29:30;;;;;;;124.90;99.03;;;20.80;49.90;;;;;;5116141;55;21012;-37
2022/11/22 17:34:31;;;;;;;125.85;100.47;;;20.80;50.00;;;;;;4694579;56;21497;-41
2022/11/22 17:39:31;;;;;;;123.50;97.43;;;20.80;49.90;;;;;;4694423;59;21020;-37
2022/11/22 17:44:32;;;;;;;125.03;98.12;;;20.80;49.90;;;;;;4694564;59;21490;-46
2022/11/22 17:49:33;;;;;;;120.80;98.28;;;20.80;49.90;;;;;;4694718;59;21016;-46
2022/11/22 17:54:34;;;;;;;120.43;96.60;;;20.80;50.00;;;;;;4694718;59;21055;-44
2022/11/22 17:59:35;;;;;;;122.50;94.68;;;20.80;50.00;;;;;;4750992;55;21045;-46
2022/11/22 18:04:37;;;;;;;117.50;95.70;;;20.80;50.00;;;;;;4694536;59;21457;-48
2022/11/22 18:09:37;;;;;;;116.37;92.93;;;20.80;50.00;;;;;;4694758;59;21589;-40
2022/11/22 18:14:38;;;;;;;116.85;95.03;;;20.80;50.00;;;;;;4728190;55;21020;-45
2022/11/22 18:19:39;;;;;;;114.05;92.85;;;20.80;50.00;;;;;;4700700;55;21467;-47
2022/11/22 18:24:40;;;;;;;114.18;92.45;;;20.80;50.10;;;;;;4732568;55;21470;-43
2022/11/22 18:29:41;;;;;;;117.15;93.22;;;20.80;50.00;;;;;;4756249;55;21007;-46
2022/11/22 18:34:41;;;;;;;114.97;91.43;;;20.80;50.00;;;;;;4736907;55;21349;-37
2022/11/22 18:39:42;;;;;;;113.55;89.45;;;20.80;50.00;;;;;;4862664;55;21075;-44
2022/11/22 18:44:43;;;;;;;112.62;89.55;;;20.80;50.00;;;;;;4847355;55;21009;-42
2022/11/22 18:49:44;;;;;;;119.95;93.10;;;20.80;50.00;;;;;;4925392;55;21012;-40
2022/11/22 18:54:45;;;;;;;109.18;90.32;;;20.80;50.10;;;;;;4815419;55;21040;-51
2022/11/22 18:59:46;;;;;;;111.37;89.65;;;20.80;50.20;;;;;;4893278;55;21556;-43
2022/11/22 19:04:48;;;;;;;108.75;87.95;;;20.80;50.20;;;;;;4805395;55;21064;-47
2022/11/22 19:09:49;;;;;;;111.43;88.32;;;20.80;50.20;;;;;;4714607;55;21474;-44
2022/11/22 19:14:50;;;;;;;110.15;89.03;;;20.80;50.20;;;;;;4694414;56;21012;-45
2022/11/22 19:19:57;;;;;;;109.90;89.22;;;20.80;50.30;;;;;;4694039;59;21055;-49
2022/11/22 19:24:58;;;;;;;103.07;84.28;;;20.80;50.30;;;;;;4950157;55;21546;-38
2022/11/22 19:29:59;;;;;;;105.20;85.22;;;20.80;50.40;;;;;;4694753;59;21012;-37
2022/11/22 19:35:00;;;;;;;105.70;86.57;;;20.80;50.40;;;;;;4726322;55;21084;-45
2022/11/22 19:40:01;;;;;;;106.00;85.30;;;20.80;50.40;;;;;;4730489;55;21541;-39
2022/11/22 19:45:02;;;;;;;110.50;85.80;;;20.80;50.90;;;;;;4695031;59;21048;-44
2022/11/22 19:50:05;;;;;;;102.95;82.45;;;20.80;50.50;;;;;;4831725;55;21519;-46
2022/11/22 19:55:06;;;;;;;102.82;83.18;;;20.80;50.60;;;;;;4694896;56;21509;-47
2022/11/22 20:00:10;;;;;;;100.97;83.32;;;20.80;50.50;;;;;;4945995;55;21099;-47
2022/11/22 20:05:11;;;;;;;101.93;82.00;;;20.80;50.60;;;;;;4749849;55;21493;-34
2022/11/22 20:10:12;;;;;;;106.57;83.60;;;20.80;50.60;;;;;;5062221;55;21076;-33
2022/11/22 20:15:12;;;;;;;105.40;84.60;;;20.80;50.70;;;;;;4803073;55;21016;-34
2022/11/22 20:20:14;;;;;;;95.97;80.15;;;20.80;50.60;;;;;;4999796;55;21024;-35
2022/11/22 20:25:16;;;;;;;97.12;81.50;;;20.80;50.60;;;;;;4940563;55;21004;-29
2022/11/22 20:30:16;;;;;;;101.35;82.82;;;20.80;50.60;;;;;;4791281;55;21538;-36
2022/11/22 20:35:17;;;;;;;98.10;80.22;;;20.80;50.60;;;;;;4935958;55;21016;-32
2022/11/22 20:40:18;;;;;;;102.68;82.30;;;20.80;50.70;;;;;;4694623;59;21088;-37
2022/11/22 20:45:19;;;;;;;96.22;79.05;;;20.80;50.70;;;;;;4695068;59;21482;-45
2022/11/22 20:50:20;;;;;;;99.00;79.72;;;20.80;50.80;;;;;;5043049;55;21028;-38
2022/11/22 20:55:21;;;;;;;97.12;80.40;;;20.80;50.60;;;;;;4720020;55;21005;-41
2022/11/22 21:00:22;;;;;;;94.13;78.47;;;20.80;50.70;;;;;;4931660;55;21677;-41
2022/11/22 21:05:22;;;;;;;97.35;81.37;;;20.80;50.80;;;;;;4738159;55;21534;-36
2022/11/22 21:10:23;;;;;;;93.05;76.93;;;20.80;50.70;;;;;;4784428;55;21478;-35
2022/11/22 21:15:24;;;;;;;96.07;77.65;;;20.80;50.70;;;;;;4709172;55;21542;-47
2022/11/22 21:20:25;;;;;;;91.30;75.55;;;20.80;50.80;;;;;;4908345;55;21067;-42
2022/11/22 21:25:26;;;;;;;87.43;73.03;;;20.80;50.70;;;;;;5017503;55;21004;-36
2022/11/22 21:30:27;;;;;;;89.50;74.20;;;20.80;50.80;;;;;;4743207;55;21012;-38
2022/11/22 21:35:27;;;;;;;90.57;74.55;;;20.80;50.80;;;;;;4695187;59;21463;-31
2022/11/22 21:40:28;;;;;;;89.95;74.07;;;20.80;50.80;;;;;;4771889;55;21119;-38
2022/11/22 21:45:29;;;;;;;87.68;73.10;;;20.80;50.70;;;;;;4993702;55;21012;-40
2022/11/22 21:50:30;;;;;;;83.85;70.60;;;20.80;50.70;;;;;;4989350;55;21112;-45
2022/11/22 21:55:31;;;;;;;87.32;71.55;;;20.80;50.70;;;;;;4708534;55;20996;-40
2022/11/22 22:00:32;;;;;;;86.35;71.47;;;20.80;50.70;;;;;;4739961;55;21092;-46
2022/11/22 22:05:32;;;;;;;80.20;66.43;;;20.80;50.80;;;;;;4695170;59;21008;-45
2022/11/22 22:10:33;;;;;;;84.60;69.22;;;20.80;50.80;;;;;;4762925;55;21036;-44
2022/11/22 22:15:34;;;;;;;80.60;66.70;;;20.70;50.60;;;;;;4846612;55;20992;-34
2022/11/22 22:20:35;;;;;;;79.45;64.18;;;20.80;50.70;;;;;;5059691;55;21016;-32
2022/11/22 22:25:39;;;;;;;80.75;67.50;;;20.70;50.60;;;;;;4695164;59;21567;-45
2022/11/22 22:30:39;;;;;;;77.82;64.97;;;20.70;50.70;;;;;;4695095;59;21570;-43
2022/11/22 22:35:40;;;;;;;80.12;64.45;;;20.70;51.40;;;;;;4702637;55;21044;-41
2022/11/22 22:40:41;;;;;;;77.57;64.00;;;20.80;50.80;;;;;;4694436;56;21060;-30
2022/11/22 22:45:42;;;;;;;75.57;62.78;;;20.70;50.60;;;;;;4694715;59;21057;-31
2022/11/22 22:50:42;;;;;;;74.30;63.67;;;20.70;50.70;;;;;;5126462;55;21542;-38
2022/11/22 22:55:51;;;;;;;70.53;59.80;;;20.70;50.60;;;;;;4989752;55;21087;-36
2022/11/22 23:00:52;;;;;;;71.78;60.72;;;20.70;50.80;;;;;;4693785;59;21020;-42
2022/11/22 23:05:53;;;;;;;70.25;59.10;;;20.70;50.70;;;;;;4737520;55;20984;-40
2022/11/22 23:10:53;;;;;;;72.87;61.17;;;20.70;51.30;;;;;;4756716;55;21103;-36
2022/11/22 23:15:59;;;;;;;71.78;60.28;;;20.70;50.70;;;;;;4695373;59;20997;-38
2022/11/22 23:21:01;;;;;;;67.37;56.70;;;20.70;50.70;;;;;;4820288;55;21043;-32
2022/11/22 23:26:04;;;;;;;71.12;58.25;;;20.70;50.70;;;;;;4695400;59;21032;-36
2022/11/22 23:31:14;;;;;;;68.87;58.20;;;20.70;50.70;;;;;;4695584;59;21056;-34
2022/11/22 23:36:17;;;;;;;66.40;56.17;;;20.70;50.70;;;;;;4695563;59;21455;-30
2022/11/22 23:41:20;;;;;;;64.90;54.97;;;20.70;50.80;;;;;;4694595;59;21000;-34
2022/11/22 23:46:24;;;;;;;67.55;57.33;;;20.70;50.70;;;;;;4695661;55;21003;-41
2022/11/22 23:51:27;;;;;;;65.53;55.58;;;20.70;50.70;;;;;;4765364;55;21617;-41
2022/11/22 23:56:30;;;;;;;65.95;54.10;;;20.70;50.80;;;;;;4776999;55;21044;-41
